Time;durP1;ratioP1;P1;durP2;ratioP2;P2;SDS_P1;SDS_P2;PMS_P1;PMS_P2;Temp;Humidity;BMP_temperature;BMP_pressure;BME280_temperature;BME280_humidity;BME280_pressure;Samples;Min_cycle;Max_cycle;Signal;HPM_P1;HPM_P2
2021/11/21 00:00:30;;;;;;;8.27;5.57;;;;;;;10.19;59.95;100019.91;5012972;28;20104;-37
2021/11/21 00:02:55;;;;;;;8.23;5.75;;;;;;;9.89;60.53;100008.63;5010319;28;20054;-37
2021/11/21 00:05:20;;;;;;;7.43;5.40;;;;;;;10.10;59.59;100021.06;5011415;28;20516;-38
2021/11/21 00:07:46;;;;;;;9.40;6.10;;;;;;;9.90;60.50;100020.91;5012031;28;20408;-38
2021/11/21 00:10:12;;;;;;;8.23;5.80;;;;;;;10.05;60.70;100012.84;5012774;28;20033;-38
2021/11/21 00:12:37;;;;;;;8.48;6.03;;;;;;;9.93;60.74;100018.69;5012828;28;20075;-38
2021/11/21 00:15:04;;;;;;;7.95;5.88;;;;;;;10.01;59.91;100015.06;5013105;28;20044;-37
2021/11/21 00:17:29;;;;;;;9.30;5.88;;;;;;;9.94;59.97;100022.19;5012492;28;20037;-37
2021/11/21 00:19:54;;;;;;;8.30;5.80;;;;;;;9.97;60.12;100025.25;5012493;28;20079;-37
2021/11/21 00:22:20;;;;;;;8.07;5.45;;;;;;;10.16;59.74;100021.09;5012704;28;20022;-37
2021/11/21 00:24:45;;;;;;;8.30;5.78;;;;;;;10.31;59.26;100013.06;5013059;28;20454;-37
2021/11/21 00:27:11;;;;;;;8.68;5.85;;;;;;;10.22;59.74;100010.72;5009138;28;20034;-38
2021/11/21 00:29:36;;;;;;;8.63;5.80;;;;;;;10.16;60.26;100023.75;5013014;28;20033;-38
2021/11/21 00:32:02;;;;;;;7.43;5.57;;;;;;;10.12;59.77;100027.81;5012383;28;20049;-38
2021/11/21 00:34:28;;;;;;;8.05;5.80;;;;;;;10.18;59.50;100021.75;5012490;28;20026;-38
2021/11/21 00:36:53;;;;;;;8.52;5.88;;;;;;;10.11;60.48;100014.72;5012448;28;20022;-38
2021/11/21 00:39:19;;;;;;;8.43;6.30;;;;;;;9.73;60.89;100013.22;5012246;28;20030;-37
2021/11/21 00:41:44;;;;;;;9.98;5.90;;;;;;;10.02;60.76;100016.72;5012175;28;20590;-37
2021/11/21 00:44:09;;;;;;;7.80;5.90;;;;;;;9.75;61.32;100016.50;5012000;28;20026;-38
2021/11/21 00:46:35;;;;;;;8.95;6.38;;;;;;;9.97;60.58;100013.81;5011827;28;20021;-38
2021/11/21 00:49:02;;;;;;;8.30;6.15;;;;;;;9.83;61.33;100012.06;5012160;28;20029;-37
2021/11/21 00:51:28;;;;;;;9.13;5.97;;;;;;;9.90;61.54;100012.91;5012036;28;20037;-37
2021/11/21 00:54:04;;;;;;;8.02;6.07;;;;;;;9.82;61.45;100019.19;5011638;28;20030;-38
2021/11/21 00:56:29;;;;;;;7.85;5.65;;;;;;;10.12;59.93;100017.19;5011765;28;20132;-38
2021/11/21 00:58:55;;;;;;;8.85;6.50;;;;;;;9.96;60.76;100006.84;5011810;28;20080;-38
2021/11/21 01:01:20;;;;;;;8.20;6.10;;;;;;;9.95;61.10;100006.00;5011758;28;20026;-38
2021/11/21 01:03:46;;;;;;;8.68;6.00;;;;;;;9.85;61.33;99999.41;5011884;28;20458;-39
2021/11/21 01:06:11;;;;;;;8.73;6.13;;;;;;;9.89;61.22;99998.00;5010427;28;20025;-38
2021/11/21 01:08:37;;;;;;;9.70;6.07;;;;;;;9.93;61.00;99993.94;5011792;28;20029;-38
2021/11/21 01:11:04;;;;;;;11.20;6.57;;;;;;;9.92;60.70;99995.78;5011650;28;20036;-38
2021/11/21 01:13:29;;;;;;;10.77;6.57;;;;;;;9.76;61.52;100001.38;5012012;28;20071;-38
2021/11/21 01:15:55;;;;;;;8.27;6.00;;;;;;;9.94;61.16;99991.09;4991658;28;20058;-38
2021/11/21 01:18:21;;;;;;;8.57;5.70;;;;;;;9.85;61.41;99994.09;5011252;28;20018;-38
2021/11/21 01:20:46;;;;;;;8.00;5.82;;;;;;;9.95;60.85;99990.06;5011941;28;20474;-38
2021/11/21 01:23:13;;;;;;;9.27;5.85;;;;;;;9.86;61.18;99988.59;5012136;28;20040;-38
2021/11/21 01:25:39;;;;;;;9.70;5.97;;;;;;;10.00;60.71;99986.84;5011960;28;20029;-37
2021/11/21 01:28:05;;;;;;;8.68;6.00;;;;;;;10.03;60.35;99982.97;5012124;28;20022;-37
2021/11/21 01:30:30;;;;;;;7.93;5.38;;;;;;;10.11;60.34;99988.97;5011593;28;20024;-37
2021/11/21 01:32:56;;;;;;;9.38;6.10;;;;;;;9.97;60.69;99987.22;5011819;28;20021;-37
2021/11/21 01:35:22;;;;;;;8.35;5.80;;;;;;;10.14;59.99;99985.91;5011620;28;20101;-37
2021/11/21 01:37:48;;;;;;;6.80;5.47;;;;;;;10.09;60.11;99987.50;5011562;28;20148;-37
2021/11/21 01:40:14;;;;;;;7.50;6.03;;;;;;;10.26;59.70;99994.19;5011233;28;20044;-38
2021/11/21 01:42:40;;;;;;;9.95;5.82;;;;;;;10.16;59.63;99994.50;5011585;28;20052;-38
2021/11/21 01:45:06;;;;;;;8.50;5.80;;;;;;;10.11;59.87;99993.44;5011425;28;20092;-39
2021/11/21 01:47:31;;;;;;;8.00;5.90;;;;;;;10.10;59.80;99979.34;5011595;28;20084;-38
2021/11/21 01:49:57;;;;;;;6.47;5.20;;;;;;;10.01;60.18;99990.31;5011521;28;20018;-39
2021/11/21 01:52:22;;;;;;;7.88;5.82;;;;;;;9.82;60.72;99989.16;5011141;28;20413;-38
2021/11/21 01:54:48;;;;;;;9.15;5.68;;;;;;;9.86;60.94;99983.28;5010971;28;20046;-38
2021/11/21 01:57:14;;;;;;;8.05;5.55;;;;;;;9.87;60.83;99984.91;5011009;28;20425;-39
2021/11/21 01:59:39;;;;;;;9.18;5.90;;;;;;;9.76;61.18;99985.41;5009828;28;20495;-39
2021/11/21 02:02:05;;;;;;;8.48;5.28;;;;;;;9.50;62.11;99972.72;5011190;28;20026;-38
2021/11/21 02:04:30;;;;;;;8.02;5.75;;;;;;;9.32;62.63;99971.34;5011229;28;20029;-39
2021/11/21 02:06:56;;;;;;;10.18;5.63;;;;;;;9.54;62.20;99971.34;5010829;28;20017;-38
2021/11/21 02:09:21;;;;;;;8.13;5.80;;;;;;;9.48;62.06;99964.97;5010778;28;20046;-38
2021/11/21 02:11:47;;;;;;;8.80;5.75;;;;;;;9.59;62.00;99964.47;5011064;28;20018;-38
2021/11/21 02:14:12;;;;;;;8.05;5.85;;;;;;;9.47;62.32;99955.34;5010722;28;20029;-38
2021/11/21 02:16:37;;;;;;;8.45;5.72;;;;;;;9.48;62.21;99961.47;5010563;28;20022;-38
2021/11/21 02:19:03;;;;;;;8.70;5.80;;;;;;;9.16;63.56;99969.75;5010669;28;20073;-38
2021/11/21 02:21:29;;;;;;;8.57;5.72;;;;;;;9.13;63.79;99962.16;5010441;28;20463;-38
2021/11/21 02:23:54;;;;;;;7.80;5.82;;;;;;;9.04;63.98;99965.13;5010782;28;20030;-38
2021/11/21 02:26:20;;;;;;;7.63;5.40;;;;;;;8.96;64.38;99964.22;5010296;28;20052;-38
2021/11/21 02:28:46;;;;;;;9.60;6.03;;;;;;;8.99;64.20;99958.56;5008835;28;20029;-37
2021/11/21 02:31:12;;;;;;;9.15;5.95;;;;;;;9.08;64.12;99958.44;5009898;28;20037;-38
2021/11/21 02:33:38;;;;;;;7.97;5.80;;;;;;;9.61;62.37;99950.13;5010329;28;20018;-38
2021/11/21 02:36:05;;;;;;;7.53;5.70;;;;;;;9.75;61.84;99957.22;5010493;28;20094;-37
2021/11/21 02:38:31;;;;;;;8.25;5.78;;;;;;;9.46;62.78;99947.56;5010392;28;20037;-38
2021/11/21 02:40:58;;;;;;;9.85;5.80;;;;;;;9.30;63.12;99951.31;5010564;28;20104;-38
2021/11/21 02:43:24;;;;;;;9.13;5.82;;;;;;;9.10;63.91;99943.13;5010388;28;20034;-38
2021/11/21 02:45:50;;;;;;;8.20;5.93;;;;;;;9.16;63.69;99945.06;5010673;28;20053;-37
2021/11/21 02:48:22;;;;;;;8.23;6.07;;;;;;;9.28;63.43;99938.22;5010067;28;20080;-37
2021/11/21 02:50:48;;;;;;;10.80;5.82;;;;;;;9.53;62.90;99943.13;5008534;28;20062;-37
2021/11/21 02:53:14;;;;;;;10.07;6.22;;;;;;;9.47;62.72;99939.41;5010007;28;20024;-37
2021/11/21 02:55:40;;;;;;;7.50;5.47;;;;;;;9.60;62.17;99941.34;5010083;28;20405;-38
2021/11/21 02:58:05;;;;;;;9.85;6.05;;;;;;;9.53;62.13;99945.78;5008736;28;20034;-38
2021/11/21 03:00:33;;;;;;;8.27;5.68;;;;;;;9.62;62.15;99941.97;5010297;28;20371;-38
2021/11/21 03:02:58;;;;;;;7.57;5.63;;;;;;;9.52;62.42;99941.47;5010213;28;20466;-38
2021/11/21 03:05:24;;;;;;;9.60;5.90;;;;;;;9.48;62.00;99940.22;5010691;28;20022;-38
2021/11/21 03:07:49;;;;;;;8.57;5.82;;;;;;;9.58;61.81;99946.03;5010000;28;20113;-38
2021/11/21 03:10:18;;;;;;;8.35;5.72;;;;;;;9.40;62.24;99941.16;5009915;28;20049;-38
2021/11/21 03:12:44;;;;;;;8.38;6.05;;;;;;;9.46;62.54;99939.59;5010068;28;20017;-38
2021/11/21 03:15:09;;;;;;;9.57;5.60;;;;;;;9.18;63.22;99946.50;5009804;28;20071;-37
2021/11/21 03:17:35;;;;;;;8.38;5.90;;;;;;;9.01;63.82;99947.75;5009894;28;20018;-38
2021/11/21 03:20:01;;;;;;;7.88;5.93;;;;;;;8.91;64.16;99941.91;5009502;28;20033;-38
2021/11/21 03:22:26;;;;;;;8.23;5.70;;;;;;;9.08;63.54;99935.38;5009508;28;20102;-38
2021/11/21 03:24:51;;;;;;;8.57;6.07;;;;;;;8.94;64.04;99944.19;5009977;28;20021;-38
2021/11/21 03:27:17;;;;;;;8.05;5.80;;;;;;;8.92;64.27;99947.03;5009806;28;20219;-38
2021/11/21 03:29:43;;;;;;;8.32;5.85;;;;;;;8.92;64.30;99949.69;5009797;28;20080;-38
2021/11/21 03:32:08;;;;;;;8.50;5.65;;;;;;;9.51;62.03;99945.97;5010229;28;20026;-37
2021/11/21 03:34:37;;;;;;;9.02;5.90;;;;;;;9.72;61.40;99942.47;5009735;28;20018;-37
2021/11/21 03:37:04;;;;;;;8.40;6.15;;;;;;;9.42;62.29;99946.31;5009679;28;20045;-38
2021/11/21 03:39:29;;;;;;;9.73;5.95;;;;;;;9.03;63.40;99942.25;5009758;28;20425;-38
2021/11/21 03:41:55;;;;;;;9.05;5.85;;;;;;;8.86;64.14;99941.66;5009608;28;20095;-37
2021/11/21 03:44:20;;;;;;;8.18;6.00;;;;;;;8.82;64.23;99938.56;5010042;28;20362;-38
2021/11/21 03:46:46;;;;;;;11.07;6.05;;;;;;;8.86;64.39;99947.78;5009740;28;20371;-38
2021/11/21 03:49:11;;;;;;;9.40;6.13;;;;;;;8.70;64.95;99940.03;5009620;28;20029;-37
2021/11/21 03:51:37;;;;;;;11.15;6.60;;;;;;;8.67;65.25;99941.25;5009740;28;20026;-37
2021/11/21 03:54:02;;;;;;;9.00;6.25;;;;;;;8.27;66.43;99943.38;5009485;28;20038;-38
2021/11/21 03:56:28;;;;;;;9.95;6.50;;;;;;;8.88;64.77;99953.72;5009529;28;20050;-38
2021/11/21 03:58:53;;;;;;;8.68;6.10;;;;;;;9.03;63.64;99948.38;5009064;28;20036;-39
2021/11/21 04:01:19;;;;;;;10.50;6.88;;;;;;;8.80;64.65;99953.84;5011776;28;20351;-38
2021/11/21 04:03:46;;;;;;;12.38;7.38;;;;;;;8.40;65.66;99942.72;5012850;28;20017;-50
2021/11/21 04:06:11;;;;;;;12.30;7.65;;;;;;;8.25;66.22;99952.53;5013320;28;20057;-49
2021/11/21 04:08:37;;;;;;;10.57;7.40;;;;;;;8.15;66.58;99950.97;5013408;28;20359;-50
2021/11/21 04:11:02;;;;;;;11.18;7.45;;;;;;;8.11;66.78;99949.69;5013475;28;20052;-48
2021/11/21 04:13:28;;;;;;;13.57;7.80;;;;;;;8.05;67.15;99954.88;5013403;28;20093;-51
2021/11/21 04:15:53;;;;;;;11.07;7.70;;;;;;;7.69;67.75;99951.09;5013325;28;20029;-49
2021/11/21 04:18:19;;;;;;;13.02;8.10;;;;;;;7.80;67.91;99953.28;5012935;28;20074;-51
2021/11/21 04:20:45;;;;;;;11.82;7.78;;;;;;;7.72;68.28;99957.84;5013388;28;20038;-49
2021/11/21 04:23:11;;;;;;;13.30;8.40;;;;;;;8.43;65.39;99954.81;5012898;28;20052;-49
2021/11/21 04:25:37;;;;;;;12.57;7.70;;;;;;;8.24;65.48;99954.31;5013142;28;20018;-49
2021/11/21 04:28:03;;;;;;;13.20;8.18;;;;;;;7.91;66.22;99954.69;5013066;28;20033;-48
2021/11/21 04:30:28;;;;;;;14.00;8.02;;;;;;;8.06;67.03;99957.34;5012008;28;20022;-49
2021/11/21 04:32:53;;;;;;;12.98;8.07;;;;;;;7.93;67.32;99951.84;5012372;28;20358;-49
2021/11/21 04:35:19;;;;;;;13.50;7.90;;;;;;;8.47;65.60;99953.44;5012387;28;20018;-49
2021/11/21 04:37:45;;;;;;;13.77;8.35;;;;;;;7.86;66.18;99950.91;5012607;28;20021;-51
2021/11/21 04:40:11;;;;;;;15.32;8.32;;;;;;;7.28;68.18;99924.13;5012466;28;20034;-51
2021/11/21 04:42:36;;;;;;;12.93;8.40;;;;;;;7.60;68.59;99960.09;5011761;28;20014;-49
2021/11/21 04:45:02;;;;;;;16.02;9.30;;;;;;;8.34;65.72;99964.66;5012095;28;20033;-50
2021/11/21 04:47:28;;;;;;;15.32;8.93;;;;;;;8.06;65.52;99961.84;5011952;28;20105;-48
2021/11/21 04:49:53;;;;;;;14.23;8.77;;;;;;;8.07;66.13;99960.81;5012622;28;20033;-49
2021/11/21 04:52:19;;;;;;;15.35;9.18;;;;;;;7.93;66.13;99965.09;5011531;28;20021;-49
2021/11/21 04:54:45;;;;;;;16.38;8.70;;;;;;;7.82;66.73;99967.19;5011997;28;20510;-49
2021/11/21 04:57:10;;;;;;;14.93;8.75;;;;;;;7.58;67.18;99972.72;5012609;28;20030;-48
2021/11/21 04:59:35;;;;;;;12.57;8.30;;;;;;;7.50;67.68;99967.47;5012287;28;20417;-48
2021/11/21 05:02:02;;;;;;;17.00;8.52;;;;;;;8.14;65.32;99972.34;5010837;28;20140;-49
2021/11/21 05:04:27;;;;;;;13.30;8.35;;;;;;;7.83;66.46;99974.13;5012312;28;20076;-49
2021/11/21 05:06:53;;;;;;;14.27;9.00;;;;;;;7.57;67.03;99965.75;5012051;28;20017;-49
2021/11/21 05:09:18;;;;;;;13.18;8.52;;;;;;;7.05;68.44;99954.88;5011974;28;20057;-48
2021/11/21 05:11:44;;;;;;;17.75;9.15;;;;;;;6.90;68.92;99971.69;5010047;28;20036;-49
2021/11/21 05:14:12;;;;;;;14.80;8.57;;;;;;;6.77;68.99;99967.75;5012175;28;20032;-49
2021/11/21 05:16:37;;;;;;;16.60;9.07;;;;;;;6.94;68.53;99972.97;5010429;28;20026;-48
2021/11/21 05:19:03;;;;;;;15.13;9.30;;;;;;;7.04;67.48;99969.13;5012012;28;20037;-49
2021/11/21 05:21:28;;;;;;;17.80;10.32;;;;;;;7.00;67.90;99978.38;5012282;28;20026;-49
2021/11/21 05:23:54;;;;;;;52.75;28.42;;;;;;;6.87;69.74;99975.47;5011564;28;20021;-48
2021/11/21 05:26:22;;;;;;;40.15;23.02;;;;;;;6.60;71.28;99971.47;5011581;28;20061;-49
2021/11/21 05:28:47;;;;;;;47.08;24.25;;;;;;;6.62;71.03;99969.50;5012017;28;20042;-49
2021/11/21 05:31:12;;;;;;;22.38;14.00;;;;;;;6.76;71.32;99970.56;5011643;28;20045;-49
2021/11/21 05:33:38;;;;;;;63.95;32.63;;;;;;;6.88;70.27;99969.22;5011494;28;20034;-49
2021/11/21 05:36:03;;;;;;;42.13;22.90;;;;;;;7.03;70.10;99975.41;5011450;28;20355;-49
2021/11/21 05:38:29;;;;;;;29.33;17.02;;;;;;;7.69;67.04;99971.44;5011251;28;20104;-49
2021/11/21 05:40:54;;;;;;;16.48;10.23;;;;;;;7.35;66.91;99970.06;5011339;28;20041;-48
2021/11/21 05:43:20;;;;;;;16.52;10.50;;;;;;;7.46;67.39;99966.16;5011403;28;20021;-50
2021/11/21 05:45:46;;;;;;;19.40;11.20;;;;;;;7.72;66.71;99971.09;5011408;28;20041;-52
2021/11/21 05:48:11;;;;;;;19.27;11.38;;;;;;;7.30;67.33;99956.53;5011469;28;20158;-49
2021/11/21 05:50:37;;;;;;;21.63;12.38;;;;;;;7.14;68.25;99978.63;5011625;28;20026;-50
2021/11/21 05:53:02;;;;;;;26.42;12.68;;;;;;;7.50;67.37;99973.59;5010910;28;20096;-49
2021/11/21 05:55:28;;;;;;;21.17;12.52;;;;;;;7.74;66.95;99980.50;5010781;28;20461;-49
2021/11/21 05:57:53;;;;;;;20.77;12.52;;;;;;;8.78;62.83;99972.59;5011386;28;20030;-49
2021/11/21 06:00:21;;;;;;;20.35;12.00;;;;;;;8.42;63.94;99967.25;5011388;28;20034;-48
2021/11/21 06:02:47;;;;;;;17.38;10.90;;;;;;;8.35;64.12;99975.09;5011029;28;20109;-52
2021/11/21 06:05:12;;;;;;;17.90;11.25;;;;;;;8.37;63.73;99967.75;5011017;28;20025;-49
2021/11/21 06:07:38;;;;;;;19.05;11.57;;;;;;;8.76;62.54;99971.97;5011082;28;20041;-49
2021/11/21 06:10:05;;;;;;;18.77;11.85;;;;;;;9.02;61.87;99975.94;5010917;28;20458;-49
2021/11/21 06:12:30;;;;;;;21.23;11.25;;;;;;;10.01;58.75;99975.16;5010878;28;20025;-48
2021/11/21 06:14:56;;;;;;;17.33;10.70;;;;;;;9.61;59.33;99987.34;5010812;28;20397;-49
2021/11/21 06:17:21;;;;;;;17.95;11.30;;;;;;;9.48;59.95;99983.56;5010931;28;20026;-49
2021/11/21 06:19:47;;;;;;;18.65;11.60;;;;;;;9.78;59.04;99978.06;5011121;28;20029;-49
2021/11/21 06:22:13;;;;;;;19.15;11.45;;;;;;;9.57;59.70;99979.75;5011006;28;20490;-47
2021/11/21 06:24:39;;;;;;;20.40;11.90;;;;;;;9.76;59.39;99982.75;5009985;28;20061;-48
2021/11/21 06:27:04;;;;;;;20.05;10.85;;;;;;;10.94;56.03;99978.34;5011203;28;20024;-48
2021/11/21 06:29:30;;;;;;;16.90;10.20;;;;;;;10.69;56.34;99979.91;5011260;28;20465;-49
2021/11/21 06:31:55;;;;;;;17.27;10.40;;;;;;;10.49;56.75;99982.44;5011179;28;20030;-50
2021/11/21 06:34:21;;;;;;;17.95;11.07;;;;;;;10.66;56.51;99972.28;5010925;28;20048;-51
2021/11/21 06:36:46;;;;;;;16.88;11.00;;;;;;;10.57;57.45;99980.44;5010749;28;20085;-48
2021/11/21 06:39:12;;;;;;;19.15;11.27;;;;;;;11.40;55.71;99976.00;5010774;28;20033;-48
2021/11/21 06:41:38;;;;;;;20.10;11.15;;;;;;;11.71;53.32;99981.56;5010599;28;20409;-52
2021/11/21 06:44:05;;;;;;;15.55;11.30;;;;;;;11.55;53.65;99974.75;5010202;28;20546;-49
2021/11/21 06:46:30;;;;;;;18.98;11.82;;;;;;;11.44;54.46;99987.88;5010062;28;20026;-49
2021/11/21 06:48:56;;;;;;;19.77;11.75;;;;;;;11.85;53.89;99987.69;5010165;28;20454;-48
2021/11/21 06:51:21;;;;;;;23.33;14.20;;;;;;;12.40;51.14;99978.63;5010590;28;20076;-50
2021/11/21 06:53:48;;;;;;;20.80;13.48;;;;;;;12.05;52.63;99986.88;5009293;28;20034;-48
2021/11/21 06:56:14;;;;;;;18.85;13.48;;;;;;;12.00;54.07;99976.84;5009836;28;20153;-51
2021/11/21 06:58:40;;;;;;;20.17;13.23;;;;;;;12.05;52.87;99973.56;5009704;28;20033;-50
2021/11/21 07:01:05;;;;;;;17.55;12.00;;;;;;;11.93;53.20;99976.03;5010196;28;20026;-50
2021/11/21 07:03:31;;;;;;;18.05;11.40;;;;;;;12.03;54.40;99976.44;5010121;28;20482;-49
2021/11/21 07:05:56;;;;;;;15.48;10.43;;;;;;;12.70;52.91;99971.75;5010137;28;20073;-48
2021/11/21 07:08:21;;;;;;;13.23;9.88;;;;;;;13.01;51.29;99969.34;5010362;28;20030;-48
2021/11/21 07:10:47;;;;;;;15.13;9.30;;;;;;;12.78;50.94;99964.53;5010190;28;20025;-51
2021/11/21 07:13:13;;;;;;;14.10;9.50;;;;;;;13.07;50.46;99958.59;5010084;28;20507;-49
2021/11/21 07:15:38;;;;;;;14.65;10.32;;;;;;;13.02;50.72;99968.31;5009956;28;20104;-49
2021/11/21 07:18:04;;;;;;;15.25;9.30;;;;;;;12.82;51.31;99969.22;5008905;28;20521;-50
2021/11/21 07:20:29;;;;;;;17.60;9.82;;;;;;;12.96;51.35;99966.50;5009514;28;20022;-49
2021/11/21 07:22:55;;;;;;;13.43;8.90;;;;;;;13.32;49.44;99962.41;5009237;28;20481;-51
2021/11/21 07:25:21;;;;;;;11.77;8.18;;;;;;;13.48;49.32;99961.91;5009465;28;20022;-49
2021/11/21 07:27:47;;;;;;;14.32;8.48;;;;;;;13.78;47.98;99962.03;5009012;28;20022;-49
2021/11/21 07:30:14;;;;;;;12.52;8.38;;;;;;;13.75;48.13;99964.34;4991402;28;20026;-50
2021/11/21 07:32:40;;;;;;;13.18;8.85;;;;;;;14.13;47.47;99964.19;5009215;28;20053;-49
2021/11/21 07:35:06;;;;;;;14.18;9.00;;;;;;;14.07;47.50;99955.19;5010497;28;20105;-50
2021/11/21 07:37:31;;;;;;;14.05;9.00;;;;;;;14.32;46.81;99959.69;5013207;28;20024;-52
2021/11/21 07:39:57;;;;;;;11.60;7.82;;;;;;;14.32;47.11;99957.00;5012901;28;20022;-49
2021/11/21 07:42:22;;;;;;;11.15;8.18;;;;;;;14.31;47.08;99954.53;5012685;28;20060;-51
2021/11/21 07:44:48;;;;;;;12.23;8.05;;;;;;;14.28;46.42;99951.28;5011295;28;20036;-48
2021/11/21 07:47:14;;;;;;;14.30;7.75;;;;;;;14.56;45.59;99949.91;5012688;28;20021;-49
2021/11/21 07:49:39;;;;;;;12.98;7.55;;;;;;;14.42;46.49;99943.09;5012445;28;20022;-49
2021/11/21 07:52:05;;;;;;;11.27;7.45;;;;;;;14.40;46.13;99939.81;5010806;28;20087;-51
2021/11/21 07:54:32;;;;;;;13.85;8.05;;;;;;;14.53;46.24;99934.31;5012342;28;20110;-51
2021/11/21 07:56:57;;;;;;;10.07;7.28;;;;;;;14.37;46.15;99938.38;5012470;28;20072;-51
2021/11/21 07:59:23;;;;;;;11.05;7.20;;;;;;;14.25;46.49;99932.16;5011819;28;20141;-49
2021/11/21 08:01:49;;;;;;;10.57;7.25;;;;;;;14.26;46.64;99928.47;5011819;28;20034;-48
2021/11/21 08:04:14;;;;;;;9.95;7.07;;;;;;;14.05;47.05;99919.81;5012607;28;20030;-49
2021/11/21 08:06:40;;;;;;;11.20;7.47;;;;;;;14.36;46.39;99927.94;5013001;28;20032;-48
2021/11/21 08:09:05;;;;;;;12.68;7.90;;;;;;;14.41;46.54;99922.69;5012420;28;20029;-47
2021/11/21 08:11:31;;;;;;;12.75;7.50;;;;;;;14.58;45.79;99930.97;5011993;28;20076;-49
2021/11/21 08:13:56;;;;;;;12.48;7.80;;;;;;;14.85;46.26;99924.25;5012416;28;20030;-48
2021/11/21 08:16:22;;;;;;;10.93;8.02;;;;;;;15.10;45.10;99923.28;5010634;28;20025;-47
2021/11/21 08:18:47;;;;;;;12.13;8.73;;;;;;;15.12;45.56;99929.22;5012073;28;20429;-48
2021/11/21 08:21:12;;;;;;;13.23;7.88;;;;;;;15.10;46.72;99925.13;5011848;28;20092;-47
2021/11/21 08:23:38;;;;;;;25.38;17.63;;;;;;;14.81;46.60;99923.06;5005610;28;20026;-49
2021/11/21 08:26:04;;;;;;;11.23;7.65;;;;;;;14.98;46.22;99927.78;5012458;28;20026;-50
2021/11/21 08:28:29;;;;;;;10.98;7.22;;;;;;;14.41;46.69;99920.88;5012608;28;20104;-49
2021/11/21 08:30:55;;;;;;;9.98;7.20;;;;;;;14.43;47.76;99915.25;5012071;28;20032;-48
2021/11/21 08:33:20;;;;;;;12.20;7.57;;;;;;;15.61;45.29;99907.63;5011730;28;20029;-49
2021/11/21 08:35:46;;;;;;;13.10;7.78;;;;;;;16.06;43.52;99915.09;4997220;28;20475;-48
2021/11/21 08:38:11;;;;;;;10.18;7.65;;;;;;;15.28;44.24;99902.81;4992561;28;20121;-50
2021/11/21 08:40:37;;;;;;;10.55;7.88;;;;;;;15.21;44.64;99909.09;4992173;28;20375;-50
2021/11/21 08:43:03;;;;;;;10.93;8.30;;;;;;;15.27;44.92;99903.84;5009420;28;20101;-50
2021/11/21 08:45:31;;;;;;;9.82;7.40;;;;;;;16.50;42.22;99898.56;5011489;28;20055;-52
2021/11/21 08:47:57;;;;;;;13.32;8.75;;;;;;;15.96;42.96;99890.75;5010475;28;20104;-49
2021/11/21 08:50:23;;;;;;;11.32;8.10;;;;;;;15.55;43.90;99895.94;5011044;28;20029;-49
2021/11/21 08:52:48;;;;;;;12.05;8.50;;;;;;;15.18;45.43;99890.78;5011524;28;20141;-50
2021/11/21 08:55:14;;;;;;;13.30;8.75;;;;;;;16.06;43.49;99882.09;5011510;28;20050;-49
2021/11/21 08:57:40;;;;;;;14.75;8.77;;;;;;;16.19;43.49;99874.56;5011268;28;20033;-51
2021/11/21 09:00:07;;;;;;;14.35;9.10;;;;;;;16.32;43.21;99873.50;5011276;28;20492;-48
2021/11/21 09:02:41;;;;;;;14.13;9.20;;;;;;;15.79;44.60;99869.16;5011200;28;20040;-51
2021/11/21 09:05:07;;;;;;;14.07;9.02;;;;;;;15.94;44.37;99866.81;5011539;28;20097;-49
2021/11/21 09:07:40;;;;;;;15.13;9.65;;;;;;;16.42;43.09;99867.50;5011679;28;20513;-48
2021/11/21 09:10:07;;;;;;;12.75;7.90;;;;;;;16.46;43.27;99867.84;5011270;28;20097;-48
2021/11/21 09:12:32;;;;;;;13.15;9.10;;;;;;;16.12;43.84;99856.97;5009471;28;20520;-50
2021/11/21 09:14:58;;;;;;;16.60;8.80;;;;;;;16.36;43.64;99849.69;5010912;28;20053;-40
2021/11/21 09:17:24;;;;;;;14.65;9.18;;;;;;;16.90;42.45;99849.34;5011398;28;20017;-40
2021/11/21 09:19:49;;;;;;;14.52;9.60;;;;;;;16.34;42.10;99846.41;5011126;28;20391;-37
2021/11/21 09:22:15;;;;;;;13.15;9.02;;;;;;;16.23;43.44;99835.47;5011597;28;20025;-40
2021/11/21 09:24:40;;;;;;;11.70;8.85;;;;;;;16.77;42.39;99843.19;5011014;28;20037;-38
2021/11/21 09:27:07;;;;;;;13.07;8.85;;;;;;;16.94;41.34;99834.34;5011032;28;20492;-38
2021/11/21 09:29:33;;;;;;;12.10;8.60;;;;;;;16.33;43.83;99829.47;5011229;28;20021;-39
2021/11/21 09:31:58;;;;;;;13.75;7.82;;;;;;;16.03;43.48;99819.78;5011066;28;20045;-39
2021/11/21 09:34:24;;;;;;;11.65;8.32;;;;;;;16.27;43.10;99811.63;5011053;28;20026;-49
2021/11/21 09:36:50;;;;;;;13.55;7.65;;;;;;;16.83;42.20;99808.34;5010723;28;20390;-54
2021/11/21 09:39:15;;;;;;;10.02;7.80;;;;;;;16.36;43.69;99810.19;5010753;28;20164;-50
2021/11/21 09:41:41;;;;;;;12.05;8.15;;;;;;;16.10;43.77;99805.41;5010569;28;20463;-48
2021/11/21 09:44:07;;;;;;;11.70;7.82;;;;;;;16.66;42.87;99798.41;5008882;28;20030;-48
2021/11/21 09:46:32;;;;;;;10.27;7.55;;;;;;;16.92;41.05;99790.78;5010258;28;20282;-52
2021/11/21 09:48:59;;;;;;;10.68;7.90;;;;;;;16.35;43.11;99792.44;5010312;28;20022;-50
2021/11/21 09:51:25;;;;;;;10.18;7.25;;;;;;;16.34;44.19;99784.66;4992753;28;20032;-47
2021/11/21 09:53:50;;;;;;;10.40;7.70;;;;;;;17.65;45.06;99780.84;5010019;28;20051;-47
2021/11/21 09:56:16;;;;;;;10.38;7.80;;;;;;;17.28;42.68;99772.50;5008315;28;20379;-48
2021/11/21 09:58:41;;;;;;;10.15;7.30;;;;;;;17.27;44.25;99768.19;5009963;28;20022;-48
2021/11/21 10:01:07;;;;;;;11.05;7.47;;;;;;;16.87;41.91;99774.56;5010096;28;20500;-48
2021/11/21 10:03:43;;;;;;;9.57;7.45;;;;;;;17.73;40.69;99766.13;4992437;28;20029;-47
2021/11/21 10:06:09;;;;;;;12.65;7.43;;;;;;;16.81;41.17;99762.88;5008723;28;20045;-47
2021/11/21 10:08:35;;;;;;;8.85;7.10;;;;;;;16.13;43.80;99754.72;5010121;28;20104;-48
2021/11/21 10:11:08;;;;;;;10.13;7.35;;;;;;;16.44;42.78;99763.34;5009583;28;20390;-49
2021/11/21 10:13:34;;;;;;;10.70;7.57;;;;;;;16.91;41.69;99752.34;5010031;28;20038;-48
2021/11/21 10:16:18;;;;;;;10.43;7.45;;;;;;;16.51;42.41;99744.41;5009829;28;20025;-47
2021/11/21 10:18:48;;;;;;;9.68;7.22;;;;;;;16.54;43.03;99741.22;5009719;28;20413;-48
2021/11/21 10:21:14;;;;;;;10.00;7.38;;;;;;;17.23;41.27;99730.25;5009612;28;20109;-47
2021/11/21 10:23:42;;;;;;;10.35;7.30;;;;;;;16.79;41.84;99727.38;5009588;28;20026;-47
2021/11/21 10:26:07;;;;;;;9.93;7.03;;;;;;;16.50;41.98;99721.28;5010169;28;20022;-52
2021/11/21 10:28:32;;;;;;;11.23;7.30;;;;;;;16.90;43.15;99720.34;5010711;28;20363;-49
2021/11/21 10:31:04;;;;;;;11.68;6.97;;;;;;;17.22;40.72;99717.84;5010422;28;20037;-51
2021/11/21 10:33:41;;;;;;;9.13;6.80;;;;;;;16.41;42.32;99689.47;5009904;28;20036;-49
2021/11/21 10:36:20;;;;;;;8.80;6.78;;;;;;;16.90;42.13;99706.91;5009832;28;20359;-51
2021/11/21 10:38:56;;;;;;;10.02;7.00;;;;;;;17.52;40.36;99701.28;5009809;28;20096;-49
2021/11/21 10:41:51;;;;;;;9.02;6.60;;;;;;;17.10;41.24;99696.44;5009389;28;20022;-49
2021/11/21 10:44:20;;;;;;;10.85;7.03;;;;;;;17.16;41.69;99694.63;5008713;28;20092;-49
2021/11/21 10:46:47;;;;;;;8.80;6.57;;;;;;;17.33;40.38;99695.41;5009423;28;20024;-50
2021/11/21 10:49:20;;;;;;;9.23;6.45;;;;;;;17.18;41.13;99690.63;5009497;28;20030;-50
2021/11/21 10:51:47;;;;;;;8.75;6.50;;;;;;;17.15;41.37;99685.78;5009732;28;20022;-48
2021/11/21 10:54:25;;;;;;;8.85;6.10;;;;;;;17.75;40.76;99664.44;5009654;28;20026;-48
2021/11/21 10:56:52;;;;;;;7.07;5.90;;;;;;;17.97;40.56;99681.38;5007837;28;20057;-47
2021/11/21 10:59:48;;;;;;;8.43;6.10;;;;;;;17.34;40.88;99670.16;5009504;28;20030;-47
2021/11/21 11:02:13;;;;;;;8.23;6.15;;;;;;;17.52;40.54;99660.13;5009714;28;20032;-47
2021/11/21 11:04:56;;;;;;;10.57;6.47;;;;;;;18.10;39.18;99661.31;5008923;28;20030;-49
2021/11/21 11:07:22;;;;;;;7.20;6.15;;;;;;;17.47;40.72;99662.75;4991977;28;20033;-47
2021/11/21 11:09:48;;;;;;;11.38;6.50;;;;;;;16.86;41.84;99666.25;5008484;28;20034;-48
2021/11/21 11:12:14;;;;;;;9.55;5.95;;;;;;;17.65;40.88;99662.44;4991538;28;20143;-56
2021/11/21 11:14:39;;;;;;;7.63;6.20;;;;;;;17.97;39.30;99661.72;5008975;28;20082;-47
2021/11/21 11:17:05;;;;;;;8.35;6.10;;;;;;;16.99;41.33;99654.34;5008977;28;20022;-51
2021/11/21 11:19:30;;;;;;;9.70;6.70;;;;;;;16.73;42.08;99658.50;5009840;28;20117;-49
2021/11/21 11:21:55;;;;;;;9.05;6.55;;;;;;;17.52;40.58;99646.69;4992344;28;20393;-48
2021/11/21 11:24:22;;;;;;;8.55;6.22;;;;;;;17.83;40.76;99650.50;5009336;28;20033;-47